KACV

California Redwood Coast-Humboldt County Airport

Arcata/Eureka, California, USA
METAR KACV 230753Z AUTO 05005KT 10SM CLR 04/M02 A3037 RMK AO2 SLP291 T00441017 401060017
Observed Flight Rules
Feb-23 @ 07:53 UTC (34 minutes ago) Visual Flight Rules
Wind Visibility Clouds
50° at 5 knots 10 miles
  • Clear skies
Temperatures Readings
Current 4°C / 39°F
Dewpoint -2°C / 28°F
Humidity 65%
Altimeter 30.37" Hg
Pressure 1029.1 hPa
Elevation 67
METAR KACV 230753Z AUTO 05005KT 10SM CLR 04/M02 A3037 RMK AO2 SLP291 T00441017 401060017
Observed Flight Rules
Feb-23 @ 07:53 UTC
(34 minutes ago)
VFR
Wind Visibility
50° at 5 knots 10 miles
Clouds
  • Clear skies
Temperature Dewpoint
4°C / 39°F -2°C / 28°F
Humidity Altimeter Pressure
65% 30.37" Hg 1029.1 hPa